createdAt,value
2022-09-03T00:02:12.291Z,79.09
2022-09-03T00:04:53.371Z,80.45
2022-09-03T00:07:42.802Z,81.30
2022-09-03T00:10:18.062Z,81.45
2022-09-03T00:12:47.471Z,81.13
2022-09-03T00:15:24.417Z,80.78
2022-09-03T00:18:09.255Z,80.59
2022-09-03T00:20:44.211Z,77.88
2022-09-03T00:23:19.456Z,78.38
2022-09-03T00:26:14.050Z,79.46
2022-09-03T00:28:54.852Z,80.83
2022-09-03T00:31:31.987Z,79.73
2022-09-03T00:34:04.768Z,83.12
2022-09-03T00:36:42.183Z,83.54
2022-09-03T00:39:17.589Z,84.05
2022-09-03T00:42:06.835Z,84.08
2022-09-03T00:45:16.939Z,86.42
2022-09-03T00:47:58.658Z,85.64
2022-09-03T00:50:52.983Z,86.20
2022-09-03T00:53:47.893Z,87.43
2022-09-03T00:56:36.431Z,87.33
2022-09-03T00:59:08.148Z,89.94
2022-09-03T01:01:40.293Z,88.65
2022-09-03T01:04:23.387Z,88.75
2022-09-03T01:07:25.231Z,91.48
2022-09-03T01:10:05.806Z,91.67
2022-09-03T01:12:55.431Z,91.10
2022-09-03T01:15:36.054Z,92.14
2022-09-03T01:18:17.878Z,93.72
2022-09-03T01:21:22.059Z,93.58
2022-09-03T01:24:18.235Z,92.60
2022-09-03T01:27:06.186Z,91.82
2022-09-03T01:29:39.616Z,91.18
2022-09-03T01:32:20.307Z,92.13
2022-09-03T01:35:08.966Z,92.38
2022-09-03T01:37:58.495Z,92.92
2022-09-03T01:40:31.024Z,92.65
2022-09-03T01:43:45.578Z,93.08
2022-09-03T01:46:23.356Z,93.16
2022-09-03T01:49:11.516Z,93.24
2022-09-03T01:51:38.303Z,90.67
2022-09-03T01:54:40.351Z,90.04
2022-09-03T01:57:35.912Z,90.48
2022-09-03T02:00:15.527Z,92.40
2022-09-03T02:02:44.264Z,91.21
2022-09-03T02:05:15.750Z,90.69
2022-09-03T02:07:46.624Z,92.06
2022-09-03T02:10:19.936Z,92.88
2022-09-03T02:12:53.540Z,93.69
2022-09-03T02:15:22.703Z,94.48
2022-09-03T02:17:54.861Z,92.84
2022-09-03T02:20:24.097Z,94.70
2022-09-03T02:22:51.193Z,91.92
2022-09-03T02:25:18.224Z,91.36
2022-09-03T02:27:46.048Z,93.18
2022-09-03T02:30:12.599Z,93.91
2022-09-03T02:32:39.372Z,93.44
2022-09-03T02:35:06.900Z,93.75
2022-09-03T02:37:33.352Z,91.49
2022-09-03T02:40:00.004Z,93.84
2022-09-03T02:42:27.263Z,91.46
2022-09-03T02:45:00.754Z,92.28
2022-09-03T02:47:32.370Z,92.57
2022-09-03T02:49:58.873Z,91.14
2022-09-03T02:52:25.380Z,90.01
2022-09-03T02:54:52.039Z,90.47
2022-09-03T02:57:20.102Z,90.69
2022-09-03T02:59:54.097Z,88.62
2022-09-03T03:02:20.631Z,87.73
2022-09-03T03:04:47.218Z,90.16
2022-09-03T03:07:13.775Z,89.53
2022-09-03T03:09:40.291Z,92.09
2022-09-03T03:12:07.292Z,90.93
2022-09-03T03:14:33.809Z,90.85
2022-09-03T03:17:00.448Z,90.42
2022-09-03T03:19:27.176Z,90.12
2022-09-03T03:21:54.003Z,88.90
2022-09-03T03:24:20.503Z,90.56
2022-09-03T03:26:46.977Z,92.75
2022-09-03T03:29:17.863Z,93.10
2022-09-03T03:31:44.321Z,90.83
2022-09-03T03:34:10.950Z,92.58
2022-09-03T03:36:37.680Z,91.04
2022-09-03T03:39:04.414Z,91.02
2022-09-03T03:41:33.358Z,91.51
2022-09-03T03:44:02.604Z,93.02
2022-09-03T03:46:32.078Z,93.95
2022-09-03T03:48:59.794Z,93.01
2022-09-03T03:51:26.610Z,94.47
2022-09-03T03:53:58.617Z,93.81
2022-09-03T03:56:27.234Z,94.44
2022-09-03T03:58:54.797Z,96.02
2022-09-03T04:01:24.064Z,93.81
2022-09-03T04:03:51.265Z,94.93
2022-09-03T04:06:19.848Z,96.02
2022-09-03T04:08:49.647Z,96.85
2022-09-03T04:11:19.833Z,98.40
2022-09-03T04:13:47.387Z,100.00
2022-09-03T04:16:25.395Z,100.00
2022-09-03T04:18:54.254Z,100.00
2022-09-03T04:21:23.726Z,100.00
2022-09-03T04:23:51.547Z,100.00
2022-09-03T04:26:20.990Z,100.00
2022-09-03T04:28:47.697Z,100.00
2022-09-03T04:31:16.709Z,100.00
2022-09-03T04:33:43.558Z,100.00
2022-09-03T04:36:19.204Z,100.00
2022-09-03T04:38:47.937Z,100.00
2022-09-03T04:41:16.887Z,100.00
2022-09-03T04:43:43.594Z,100.00
2022-09-03T04:46:17.612Z,100.00
2022-09-03T04:48:48.822Z,100.00
2022-09-03T04:51:17.446Z,99.04
2022-09-03T04:53:46.597Z,99.04
2022-09-03T04:56:14.248Z,99.34
2022-09-03T04:58:44.416Z,99.25
2022-09-03T05:01:12.739Z,99.08
2022-09-03T05:03:39.314Z,98.67
2022-09-03T05:06:06.559Z,97.76
2022-09-03T05:08:37.261Z,97.92
2022-09-03T05:11:05.318Z,98.04
2022-09-03T05:13:33.605Z,97.66
2022-09-03T05:16:06.435Z,96.90
2022-09-03T05:18:35.645Z,97.55
2022-09-03T05:21:12.805Z,98.35
2022-09-03T05:23:42.641Z,98.89
2022-09-03T05:26:12.304Z,99.06
2022-09-03T05:28:40.584Z,98.50
2022-09-03T05:31:08.803Z,98.60
2022-09-03T05:33:44.119Z,99.05
2022-09-03T05:36:16.095Z,100.00
2022-09-03T05:38:43.523Z,100.00
2022-09-03T05:41:12.327Z,100.00
2022-09-03T05:43:40.395Z,100.00
2022-09-03T05:46:09.552Z,98.32
2022-09-03T05:48:37.752Z,97.25
2022-09-03T05:51:07.516Z,95.68
2022-09-03T05:53:36.923Z,94.88
2022-09-03T05:56:06.621Z,93.34
2022-09-03T05:58:43.479Z,90.21
2022-09-03T06:01:11.009Z,90.19
2022-09-03T06:03:37.611Z,87.07
2022-09-03T06:06:05.466Z,89.06
2022-09-03T06:08:32.400Z,83.87
2022-09-03T06:11:00.489Z,82.88
2022-09-03T06:13:27.245Z,80.10
2022-09-03T06:16:02.067Z,79.34
2022-09-03T06:18:29.357Z,80.81
2022-09-03T06:20:57.359Z,79.65
2022-09-03T06:23:24.706Z,78.04
2022-09-03T06:26:09.577Z,80.50
2022-09-03T06:28:41.234Z,80.19
2022-09-03T06:31:09.769Z,78.76
2022-09-03T06:33:37.785Z,76.13
2022-09-03T06:36:08.964Z,75.82
2022-09-03T06:38:37.317Z,75.93
2022-09-03T06:41:12.426Z,72.12
2022-09-03T06:43:41.850Z,75.28
2022-09-03T06:46:09.896Z,73.89
2022-09-03T06:48:38.912Z,70.35
2022-09-03T06:51:08.358Z,75.82
2022-09-03T06:53:37.148Z,73.97
2022-09-03T06:56:15.702Z,74.84
2022-09-03T06:58:45.326Z,75.38
2022-09-03T07:01:14.963Z,73.69
2022-09-03T07:03:43.758Z,69.41
2022-09-03T07:06:14.471Z,69.42
2022-09-03T07:08:42.582Z,69.24
2022-09-03T07:11:14.747Z,68.52
2022-09-03T07:13:44.236Z,67.75
2022-09-03T07:16:17.294Z,69.04
2022-09-03T07:18:44.712Z,65.07
2022-09-03T07:21:13.769Z,65.76
2022-09-03T07:23:42.150Z,65.09
2022-09-03T07:26:12.806Z,65.54
2022-09-03T07:28:40.333Z,65.20
2022-09-03T07:31:12.631Z,66.75
2022-09-03T07:33:39.627Z,65.27
2022-09-03T07:36:11.458Z,66.04
2022-09-03T07:38:38.200Z,63.80
2022-09-03T07:41:08.701Z,58.82
2022-09-03T07:43:41.143Z,60.42
2022-09-03T07:46:08.880Z,61.18
2022-09-03T07:48:37.621Z,61.55
2022-09-03T07:51:04.723Z,60.69
2022-09-03T07:53:32.377Z,61.14
2022-09-03T07:56:11.526Z,57.01
2022-09-03T07:58:41.338Z,53.34
2022-09-03T08:01:13.504Z,51.32
2022-09-03T08:03:45.365Z,47.26
2022-09-03T08:06:12.932Z,45.89
2022-09-03T08:08:40.336Z,42.17
2022-09-03T08:11:12.370Z,42.63
2022-09-03T08:13:40.937Z,41.30
2022-09-03T08:16:09.526Z,38.22
2022-09-03T08:18:40.086Z,41.22
2022-09-03T08:21:07.691Z,40.65
2022-09-03T08:23:38.847Z,39.75
2022-09-03T08:26:06.286Z,37.59
2022-09-03T08:28:39.317Z,37.49
2022-09-03T08:31:12.179Z,38.28
2022-09-03T08:33:44.641Z,40.85
2022-09-03T08:36:25.957Z,40.76
2022-09-03T08:38:55.373Z,39.82
2022-09-03T08:41:31.790Z,39.79
2022-09-03T08:44:19.912Z,40.34
2022-09-03T08:47:01.630Z,39.73
2022-09-03T08:49:34.515Z,43.53
2022-09-03T08:52:06.849Z,44.37
2022-09-03T08:54:33.587Z,43.97
2022-09-03T08:57:02.830Z,44.59
2022-09-03T08:59:33.039Z,46.26
2022-09-03T09:02:12.145Z,44.41
2022-09-03T09:05:20.425Z,44.06
2022-09-03T09:07:53.471Z,43.64
2022-09-03T09:10:44.624Z,42.90
2022-09-03T09:13:16.329Z,44.17
2022-09-03T09:15:55.095Z,41.96
2022-09-03T09:18:46.674Z,44.88
2022-09-03T09:21:27.565Z,44.04
2022-09-03T09:24:12.187Z,44.68
2022-09-03T09:26:41.820Z,40.83
2022-09-03T09:29:10.848Z,37.28
2022-09-03T09:31:44.699Z,37.94
2022-09-03T09:34:11.826Z,34.91
2022-09-03T09:36:50.721Z,31.60
2022-09-03T09:39:17.802Z,30.46
2022-09-03T09:41:58.984Z,30.50
2022-09-03T09:44:26.606Z,29.64
2022-09-03T09:47:04.866Z,30.71
2022-09-03T09:49:35.636Z,29.63
2022-09-03T09:52:06.724Z,30.82
2022-09-03T09:54:33.420Z,29.74
2022-09-03T09:57:06.230Z,31.68
2022-09-03T09:59:34.925Z,31.20
2022-09-03T10:02:18.212Z,32.97
2022-09-03T10:04:49.862Z,33.89
2022-09-03T10:07:25.477Z,31.81
2022-09-03T10:10:21.410Z,28.03
2022-09-03T10:13:10.033Z,29.20
2022-09-03T10:16:08.734Z,27.48
2022-09-03T10:19:04.674Z,29.02
2022-09-03T10:21:41.831Z,29.07
2022-09-03T10:24:17.261Z,28.57
2022-09-03T10:26:47.213Z,27.44
2022-09-03T10:29:20.201Z,27.70
2022-09-03T10:32:12.569Z,28.96
2022-09-03T10:35:00.209Z,28.05
2022-09-03T10:38:02.103Z,32.79
2022-09-03T10:40:48.555Z,29.20
2022-09-03T10:43:41.860Z,32.24
2022-09-03T10:46:18.378Z,32.22
2022-09-03T10:48:56.309Z,34.83
2022-09-03T10:51:57.177Z,35.19
2022-09-03T10:54:44.560Z,34.09
2022-09-03T10:57:23.714Z,36.39
2022-09-03T10:59:59.319Z,34.50
2022-09-03T11:02:38.115Z,37.71
2022-09-03T11:05:15.829Z,35.87
2022-09-03T11:07:52.000Z,34.57
2022-09-03T11:10:31.041Z,35.07
2022-09-03T11:12:57.744Z,36.07
2022-09-03T11:15:28.521Z,36.38
2022-09-03T11:18:03.584Z,36.30
2022-09-03T11:20:32.148Z,36.46
2022-09-03T11:23:03.060Z,38.17
2022-09-03T11:25:37.037Z,36.66
2022-09-03T11:28:42.250Z,36.04
2022-09-03T11:31:33.942Z,39.50
2022-09-03T11:34:17.851Z,38.21
2022-09-03T11:36:50.639Z,38.09
2022-09-03T11:39:36.665Z,36.44
2022-09-03T11:42:09.632Z,34.21
2022-09-03T11:44:37.953Z,33.06
2022-09-03T11:47:24.156Z,28.92
2022-09-03T11:49:53.632Z,28.44
2022-09-03T11:52:28.352Z,27.30
2022-09-03T11:54:55.581Z,27.06
2022-09-03T11:57:33.529Z,27.08
2022-09-03T12:00:14.624Z,27.11
2022-09-03T12:02:48.757Z,30.04
2022-09-03T12:05:33.194Z,29.82
2022-09-03T12:08:14.925Z,32.13
2022-09-03T12:10:53.342Z,34.96
2022-09-03T12:13:43.395Z,35.15
2022-09-03T12:16:45.987Z,30.32
2022-09-03T12:19:51.889Z,30.28
2022-09-03T12:22:20.184Z,28.59
2022-09-03T12:24:48.206Z,25.46
2022-09-03T12:27:26.895Z,22.60
2022-09-03T12:30:00.210Z,24.19
2022-09-03T12:32:32.508Z,23.46
2022-09-03T12:35:09.966Z,24.07
2022-09-03T12:40:27.698Z,23.25
2022-09-03T12:46:13.970Z,22.86
2022-09-03T12:51:51.950Z,24.30
2022-09-03T12:54:20.382Z,22.81
2022-09-03T12:56:53.875Z,23.40
2022-09-03T12:59:23.070Z,23.02
2022-09-03T13:01:56.917Z,24.19
2022-09-03T13:04:32.504Z,25.18
2022-09-03T13:07:11.823Z,28.72
2022-09-03T13:09:41.622Z,30.12
2022-09-03T13:12:21.366Z,32.01
2022-09-03T13:14:48.632Z,32.33
2022-09-03T13:17:52.197Z,33.57
2022-09-03T13:20:40.168Z,34.43
2022-09-03T13:23:25.822Z,34.62
2022-09-03T13:26:05.948Z,36.86
2022-09-03T13:28:53.005Z,36.60
2022-09-03T13:31:53.229Z,33.05
2022-09-03T13:34:31.955Z,26.62
2022-09-03T13:37:13.491Z,28.87
2022-09-03T13:39:47.677Z,27.21
2022-09-03T13:42:24.243Z,28.10
2022-09-03T13:45:06.260Z,24.81
2022-09-03T13:48:30.610Z,26.38
2022-09-03T13:51:23.895Z,26.68
2022-09-03T13:54:05.033Z,26.50
2022-09-03T13:56:45.271Z,25.89
2022-09-03T13:59:29.169Z,26.68
2022-09-03T14:02:04.800Z,25.84
2022-09-03T14:04:49.181Z,27.05
2022-09-03T14:07:46.255Z,29.06
2022-09-03T14:10:39.915Z,28.27
2022-09-03T14:13:16.371Z,29.90
2022-09-03T14:16:15.708Z,32.08
2022-09-03T14:18:56.680Z,34.72
2022-09-03T14:21:29.502Z,33.18
2022-09-03T14:24:30.481Z,34.71
2022-09-03T14:27:02.387Z,34.36
2022-09-03T14:29:31.638Z,33.46
2022-09-03T14:32:16.447Z,36.57
2022-09-03T14:35:04.616Z,35.39
2022-09-03T14:37:46.339Z,34.88
2022-09-03T14:40:22.717Z,38.40
2022-09-03T14:43:13.748Z,37.24
2022-09-03T14:45:40.271Z,36.25
2022-09-03T14:48:25.077Z,37.32
2022-09-03T14:50:58.242Z,37.83
2022-09-03T14:53:56.858Z,37.20
2022-09-03T14:56:31.647Z,35.99
2022-09-03T14:59:28.945Z,35.20
2022-09-03T15:02:20.046Z,36.91
2022-09-03T15:05:12.075Z,37.62
2022-09-03T15:08:08.162Z,40.47
2022-09-03T15:11:01.273Z,37.50
2022-09-03T15:13:34.261Z,39.88
2022-09-03T15:16:34.628Z,40.01
2022-09-03T15:19:13.544Z,39.00
2022-09-03T15:21:42.752Z,37.58
2022-09-03T15:24:49.384Z,39.52
2022-09-03T15:27:31.928Z,40.14
2022-09-03T15:30:21.578Z,37.89
2022-09-03T15:32:48.172Z,40.88
2022-09-03T15:35:38.880Z,38.56
2022-09-03T15:38:30.405Z,40.67
2022-09-03T15:41:01.976Z,38.67
2022-09-03T15:43:33.742Z,40.85
2022-09-03T15:46:10.745Z,38.95
2022-09-03T15:49:05.240Z,38.01
2022-09-03T15:51:43.267Z,40.62
2022-09-03T15:54:25.215Z,39.74
2022-09-03T15:57:18.241Z,39.34
2022-09-03T16:00:22.195Z,39.55
2022-09-03T16:03:07.609Z,40.36
2022-09-03T16:05:57.181Z,39.56
2022-09-03T16:08:51.448Z,39.15
2022-09-03T16:11:27.379Z,40.31
2022-09-03T16:14:34.770Z,41.37
2022-09-03T16:17:04.280Z,43.79
2022-09-03T16:19:41.878Z,40.76
2022-09-03T16:22:26.155Z,41.19
2022-09-03T16:25:07.291Z,41.14
2022-09-03T16:27:40.334Z,41.42
2022-09-03T16:30:22.740Z,41.32
2022-09-03T16:33:13.922Z,45.26
2022-09-03T16:35:52.707Z,44.95
2022-09-03T16:38:44.759Z,46.04
2022-09-03T16:41:23.693Z,45.80
2022-09-03T16:44:16.909Z,44.81
2022-09-03T16:47:04.833Z,43.96
2022-09-03T16:50:10.712Z,45.26
2022-09-03T16:52:43.188Z,43.94
2022-09-03T16:55:25.310Z,46.72
2022-09-03T16:58:11.585Z,46.14
2022-09-03T17:01:16.327Z,49.32
2022-09-03T17:03:46.665Z,49.75
2022-09-03T17:06:21.214Z,50.07
2022-09-03T17:09:16.695Z,52.17
2022-09-03T17:11:56.673Z,50.60
2022-09-03T17:15:01.819Z,53.30
2022-09-03T17:17:57.475Z,53.89
2022-09-03T17:20:50.283Z,54.92
2022-09-03T17:23:26.394Z,56.93
2022-09-03T17:26:29.655Z,59.17
2022-09-03T17:29:26.560Z,58.46
2022-09-03T17:32:48.681Z,56.20
2022-09-03T17:35:25.429Z,57.45
2022-09-03T17:38:25.712Z,58.63
2022-09-03T17:40:55.888Z,60.08
2022-09-03T17:43:38.986Z,61.29
2022-09-03T17:46:20.443Z,61.15
2022-09-03T17:48:53.527Z,62.69
2022-09-03T17:51:39.346Z,61.06
2022-09-03T17:54:28.565Z,63.07
2022-09-03T17:57:13.253Z,62.74
2022-09-03T18:00:02.733Z,65.23
2022-09-03T18:02:37.253Z,64.30
2022-09-03T18:05:27.569Z,65.19
2022-09-03T18:08:12.806Z,65.49
2022-09-03T18:11:01.118Z,66.22
2022-09-03T18:14:09.238Z,66.05
2022-09-03T18:16:46.017Z,67.75
2022-09-03T18:20:08.916Z,67.86
2022-09-03T18:23:11.151Z,69.04
2022-09-03T18:25:59.663Z,67.13
2022-09-03T18:29:10.002Z,68.48
2022-09-03T18:31:55.530Z,69.96
2022-09-03T18:34:49.132Z,68.89
2022-09-03T18:37:39.061Z,69.43
2022-09-03T18:40:27.002Z,69.57
2022-09-03T18:43:42.748Z,68.86
2022-09-03T18:48:01.239Z,67.72
2022-09-03T18:50:12.717Z,69.78
2022-09-03T18:53:18.342Z,70.77
2022-09-03T18:56:13.125Z,70.03
2022-09-03T18:59:08.816Z,68.59
2022-09-03T19:01:59.853Z,68.79
2022-09-03T19:05:31.352Z,70.10
2022-09-03T19:08:43.667Z,68.94
2022-09-03T19:11:52.240Z,69.60
2022-09-03T19:14:58.455Z,70.30
2022-09-03T19:17:54.011Z,71.09
2022-09-03T19:20:50.722Z,69.35
2022-09-03T19:23:35.891Z,69.79
2022-09-03T19:26:58.948Z,70.52
2022-09-03T19:29:55.427Z,70.74
2022-09-03T19:32:54.865Z,69.87
2022-09-03T19:35:49.256Z,69.92
2022-09-03T19:39:04.348Z,69.74
2022-09-03T19:42:03.944Z,71.80
2022-09-03T19:45:17.557Z,71.46
2022-09-03T19:48:33.442Z,71.42
2022-09-03T19:51:54.344Z,69.47
2022-09-03T19:54:42.776Z,69.93
2022-09-03T19:57:32.052Z,71.45
2022-09-03T20:00:17.892Z,70.12
2022-09-03T20:03:20.533Z,68.35
2022-09-03T20:06:10.234Z,68.48
2022-09-03T20:08:58.338Z,69.61
2022-09-03T20:11:28.207Z,70.35
2022-09-03T20:14:15.744Z,68.24
2022-09-03T20:16:48.479Z,68.82
2022-09-03T20:19:43.110Z,68.49
2022-09-03T20:22:12.594Z,70.09
2022-09-03T20:24:55.917Z,68.12
2022-09-03T20:28:06.875Z,68.99
2022-09-03T20:30:47.952Z,69.83
2022-09-03T20:33:42.023Z,69.25
2022-09-03T20:36:14.845Z,70.39
2022-09-03T20:39:11.134Z,68.31
2022-09-03T20:41:58.189Z,68.74
2022-09-03T20:44:36.849Z,68.19
2022-09-03T20:47:23.552Z,69.02
2022-09-03T20:50:40.133Z,69.30
2022-09-03T20:53:33.146Z,70.44
2022-09-03T20:56:10.662Z,69.23
2022-09-03T20:59:04.143Z,69.99
2022-09-03T21:01:53.972Z,68.76
2022-09-03T21:04:38.689Z,68.72
2022-09-03T21:07:43.205Z,68.88
2022-09-03T21:10:26.905Z,69.05
2022-09-03T21:13:02.057Z,68.59
2022-09-03T21:15:38.341Z,68.94
2022-09-03T21:18:38.606Z,69.75
2022-09-03T21:21:23.786Z,68.99
2022-09-03T21:24:05.018Z,69.69
2022-09-03T21:26:39.827Z,69.07
2022-09-03T21:29:30.676Z,70.34
2022-09-03T21:32:05.902Z,70.53
2022-09-03T21:34:43.707Z,71.82
2022-09-03T21:37:13.938Z,71.03
2022-09-03T21:39:55.875Z,72.46
2022-09-03T21:42:42.316Z,72.58
2022-09-03T21:45:15.157Z,72.55
2022-09-03T21:47:48.045Z,74.03
2022-09-03T21:50:18.536Z,74.41
2022-09-03T21:52:45.054Z,73.97
2022-09-03T21:55:20.770Z,74.92
2022-09-03T21:58:19.794Z,74.74
2022-09-03T22:00:46.720Z,74.72
2022-09-03T22:03:13.877Z,75.38
2022-09-03T22:05:57.217Z,75.43
2022-09-03T22:08:34.957Z,76.70
2022-09-03T22:11:25.867Z,77.45
2022-09-03T22:14:02.840Z,79.30
2022-09-03T22:16:41.501Z,78.16
2022-09-03T22:19:09.033Z,78.47
2022-09-03T22:21:44.404Z,78.49
2022-09-03T22:24:42.599Z,80.87
2022-09-03T22:27:32.886Z,80.83
2022-09-03T22:30:07.127Z,81.50
2022-09-03T22:32:45.613Z,81.78
2022-09-03T22:35:17.762Z,81.90
2022-09-03T22:37:59.723Z,83.09
2022-09-03T22:40:33.673Z,83.47
2022-09-03T22:43:10.028Z,83.96
2022-09-03T22:45:54.384Z,84.37
2022-09-03T22:48:54.819Z,84.77
2022-09-03T22:51:21.992Z,84.49
2022-09-03T22:54:13.338Z,85.64
2022-09-03T22:56:41.359Z,84.85
2022-09-03T22:59:15.268Z,85.72
2022-09-03T23:01:44.711Z,85.47
2022-09-03T23:04:21.356Z,86.00
2022-09-03T23:06:59.669Z,87.13
2022-09-03T23:09:34.748Z,86.11
2022-09-03T23:12:07.116Z,86.80
2022-09-03T23:14:41.376Z,87.12
2022-09-03T23:17:15.083Z,87.70
2022-09-03T23:19:48.869Z,88.26
2022-09-03T23:22:59.422Z,87.66
2022-09-03T23:25:33.867Z,88.28
2022-09-03T23:28:06.630Z,88.26
2022-09-03T23:30:33.094Z,88.16
2022-09-03T23:33:00.202Z,88.44
2022-09-03T23:35:35.057Z,88.60
2022-09-03T23:38:24.201Z,88.39
2022-09-03T23:40:54.859Z,87.86
2022-09-03T23:43:37.388Z,87.27
2022-09-03T23:46:36.292Z,87.32
2022-09-03T23:49:25.434Z,87.15
2022-09-03T23:51:57.694Z,86.92
2022-09-03T23:54:45.182Z,87.44
2022-09-03T23:57:24.821Z,86.49
